Pagina principale
METAR-TAF:

METAR-TAF

Aeroporti :

Aeroporto di Foggia

Foggia, Italia

latitudine: 41-25-58N, longitudine: 015-32-06E, altezza: 81 m

Osservazione

Il bollettino è stato emesso 1 ora e 1 minuti fa, alle 08:50 UTC
Vento 10 kt da est, variando fra est/nord-est e sud-est
Temperature 10°C
Umidità 100%
Pressione 1012 hPa
Visibilità: 6000 m
Nubi sparse ad un'altezza di 1500 ft
Nuvoloso ad un'altezza di 3000 ft

METAR: LIBF 090850Z 10010KT 070V130 6000 SCT015 BKN030 10/10 Q1012

Ora: 10:51 (09:51 UTC)


TAF: mancante

Osservazioni e previsioni meteorologiche di più di 4000 aeroporti (messaggi METAR e TAF).

Le stazioni disponibili sono rappresentate dai dischi gialli e rossi sulla carta.

Puntare il mouse per vedere il nome della stazione.

Clicca sopra per visualizzare le osservazioni e previsioni meteorologiche.

Per cambiare la mappa : fare clic sui pulsanti verdi con una croce nera per ingrandire, il pulsante verde con un trattino per diminuire, o sulla freccia verde per le mappe adiacenti.


METAR-TAF: